createdAt,value
2022-10-05T00:00:14.612Z,0.00
2022-10-05T00:01:14.554Z,0.00
2022-10-05T00:02:14.587Z,0.00
2022-10-05T00:03:14.531Z,0.00
2022-10-05T00:04:14.606Z,0.00
2022-10-05T00:05:14.596Z,0.00
2022-10-05T00:06:14.502Z,0.00
2022-10-05T00:07:14.486Z,0.00
2022-10-05T00:08:14.483Z,0.00
2022-10-05T00:09:14.462Z,0.00
2022-10-05T00:10:14.453Z,0.00
2022-10-05T00:11:14.441Z,0.00
2022-10-05T00:12:14.429Z,0.00
2022-10-05T00:13:14.417Z,0.00
2022-10-05T00:14:14.409Z,0.00
2022-10-05T00:15:14.397Z,0.00
2022-10-05T00:16:14.442Z,0.00
2022-10-05T00:17:14.371Z,0.00
2022-10-05T00:18:14.364Z,0.00
2022-10-05T00:19:14.350Z,0.00
2022-10-05T00:20:14.338Z,0.00
2022-10-05T00:21:14.325Z,0.00
2022-10-05T00:22:14.318Z,0.00
2022-10-05T00:23:14.305Z,0.00
2022-10-05T00:24:14.296Z,0.00
2022-10-05T00:25:14.282Z,0.00
2022-10-05T00:26:14.273Z,0.00
2022-10-05T00:27:14.260Z,0.00
2022-10-05T00:28:14.285Z,0.00
2022-10-05T00:29:14.240Z,0.00
2022-10-05T00:30:14.230Z,0.00
2022-10-05T00:31:14.248Z,0.00
2022-10-05T00:32:14.231Z,0.00
2022-10-05T00:33:14.194Z,0.00
2022-10-05T00:34:14.185Z,0.00
2022-10-05T00:35:14.170Z,0.00
2022-10-05T00:36:14.162Z,0.00
2022-10-05T00:37:14.151Z,0.00
2022-10-05T00:38:14.142Z,0.00
2022-10-05T00:39:14.128Z,0.00
2022-10-05T00:40:14.125Z,0.00
2022-10-05T00:41:14.168Z,0.00
2022-10-05T00:42:14.097Z,0.00
2022-10-05T00:43:14.086Z,0.00
2022-10-05T00:44:14.074Z,0.00
2022-10-05T00:45:14.060Z,0.00
2022-10-05T00:46:14.098Z,0.00
2022-10-05T00:47:14.038Z,0.00
2022-10-05T00:48:14.051Z,0.00
2022-10-05T00:49:14.016Z,0.00
2022-10-05T00:50:14.017Z,0.00
2022-10-05T00:51:13.992Z,0.00
2022-10-05T00:52:13.983Z,0.00
2022-10-05T00:53:13.974Z,0.00
2022-10-05T00:54:18.130Z,0.00
2022-10-05T00:55:13.946Z,0.00
2022-10-05T00:56:13.939Z,0.00
2022-10-05T00:57:13.924Z,0.00
2022-10-05T00:58:13.913Z,0.00
2022-10-05T00:59:13.907Z,0.00
2022-10-05T01:00:13.893Z,0.00
2022-10-05T01:01:13.979Z,0.00
2022-10-05T01:02:13.953Z,0.00
2022-10-05T01:03:13.859Z,0.00
2022-10-05T01:04:13.867Z,0.00
2022-10-05T01:05:13.835Z,0.00
2022-10-05T01:06:13.820Z,0.00
2022-10-05T01:07:13.814Z,0.00
2022-10-05T01:08:13.798Z,0.00
2022-10-05T01:09:13.787Z,0.00
2022-10-05T01:10:13.775Z,0.00
2022-10-05T01:11:13.765Z,0.00
2022-10-05T01:12:13.753Z,0.00
2022-10-05T01:13:13.749Z,0.00
2022-10-05T01:14:13.731Z,0.00
2022-10-05T01:15:13.719Z,0.00
2022-10-05T01:16:13.752Z,0.00
2022-10-05T02:21:04.990Z,0.00
2022-10-05T02:22:04.959Z,0.00
2022-10-05T02:23:04.950Z,0.00
2022-10-05T02:24:04.938Z,0.00
2022-10-05T02:25:04.930Z,0.00
2022-10-05T02:26:04.913Z,0.00
2022-10-05T02:27:04.905Z,0.00
2022-10-05T02:28:04.949Z,0.00
2022-10-05T02:29:04.882Z,0.00
2022-10-05T02:30:04.870Z,0.00
2022-10-05T02:31:04.951Z,0.00
2022-10-05T02:32:04.854Z,0.00
2022-10-05T02:33:04.836Z,0.00
2022-10-05T02:34:04.824Z,0.00
2022-10-05T02:35:04.814Z,0.00
2022-10-05T02:36:04.813Z,0.00
2022-10-05T02:37:04.814Z,0.00
2022-10-05T02:38:04.778Z,0.00
2022-10-05T02:39:04.773Z,0.00
2022-10-05T02:40:04.757Z,0.00
2022-10-05T02:41:04.747Z,0.00
2022-10-05T02:42:04.732Z,0.00
2022-10-05T02:43:04.727Z,0.00
2022-10-05T02:44:04.709Z,0.00
2022-10-05T02:45:04.776Z,0.00
2022-10-05T02:46:04.743Z,0.00
2022-10-05T02:47:04.676Z,0.00
2022-10-05T02:48:04.664Z,0.00
2022-10-05T02:49:04.657Z,0.00
2022-10-05T02:50:04.648Z,0.00
2022-10-05T02:51:04.632Z,0.00
2022-10-05T02:52:04.619Z,0.00
2022-10-05T02:53:04.635Z,0.00
2022-10-05T02:54:04.595Z,0.00
2022-10-05T02:55:04.592Z,0.00
2022-10-05T02:56:04.573Z,0.00
2022-10-05T02:57:04.563Z,0.00
2022-10-05T02:58:04.561Z,0.00
2022-10-05T02:59:04.540Z,0.00
2022-10-05T03:00:04.527Z,0.00
2022-10-05T03:01:04.564Z,0.00
2022-10-05T03:02:04.520Z,0.00
2022-10-05T03:03:04.505Z,0.00
2022-10-05T03:04:04.481Z,0.00
2022-10-05T03:05:04.475Z,0.00
2022-10-05T03:06:04.459Z,0.00
2022-10-05T03:07:04.452Z,0.00
2022-10-05T03:08:04.442Z,0.00
2022-10-05T03:09:04.451Z,0.00
2022-10-05T03:10:04.413Z,0.00
2022-10-05T03:11:04.405Z,0.00
2022-10-05T03:12:04.390Z,0.00
2022-10-05T03:13:04.380Z,0.00
2022-10-05T03:14:04.368Z,0.00
2022-10-05T03:15:04.359Z,0.00
2022-10-05T03:16:04.429Z,0.00
2022-10-05T03:17:04.336Z,0.00
2022-10-05T03:18:04.323Z,0.00
2022-10-05T03:19:04.313Z,0.00
2022-10-05T03:20:04.300Z,0.00
2022-10-05T03:21:04.291Z,0.00
2022-10-05T03:22:04.276Z,0.00
2022-10-05T03:23:04.266Z,0.00
2022-10-05T03:24:04.254Z,0.00
2022-10-05T03:25:04.298Z,0.00
2022-10-05T03:26:04.231Z,0.00
2022-10-05T03:27:04.223Z,0.00
2022-10-05T03:28:04.304Z,0.00
2022-10-05T03:29:04.198Z,0.00
2022-10-05T03:30:04.186Z,0.00
2022-10-05T03:31:04.227Z,0.00
2022-10-05T03:32:04.164Z,0.00
2022-10-05T03:33:04.152Z,0.00
2022-10-05T03:34:04.140Z,0.00
2022-10-05T03:35:04.132Z,0.00
2022-10-05T03:36:04.118Z,0.00
2022-10-05T03:37:04.122Z,0.00
2022-10-05T03:38:04.093Z,0.00
2022-10-05T03:39:04.082Z,0.00
2022-10-05T03:40:04.072Z,0.00
2022-10-05T03:41:04.084Z,0.00
2022-10-05T03:42:04.048Z,0.00
2022-10-05T03:43:04.047Z,0.00
2022-10-05T03:44:04.029Z,0.00
2022-10-05T03:45:04.015Z,0.00
2022-10-05T03:46:04.044Z,0.00
2022-10-05T03:47:03.994Z,0.00
2022-10-05T03:48:03.987Z,0.00
2022-10-05T03:49:03.971Z,0.00
2022-10-05T03:50:03.956Z,0.00
2022-10-05T03:51:03.946Z,0.00
2022-10-05T03:52:03.936Z,0.00
2022-10-05T03:53:03.923Z,0.00
2022-10-05T03:54:03.917Z,0.00
2022-10-05T03:55:03.907Z,0.00
2022-10-05T03:56:03.888Z,0.00
2022-10-05T03:57:03.903Z,0.00
2022-10-05T03:58:03.865Z,0.00
2022-10-05T03:59:03.856Z,0.00
2022-10-05T04:00:04.390Z,0.00
2022-10-05T04:01:03.844Z,0.00
2022-10-05T04:02:03.824Z,0.00
2022-10-05T04:03:03.881Z,0.00
2022-10-05T04:04:03.799Z,0.00
2022-10-05T04:05:03.790Z,0.00
2022-10-05T04:06:03.782Z,0.00
2022-10-05T04:07:03.767Z,0.00
2022-10-05T04:08:03.753Z,0.00
2022-10-05T04:09:03.748Z,0.00
2022-10-05T04:10:03.741Z,0.00
2022-10-05T04:11:03.725Z,0.00
2022-10-05T04:12:03.709Z,0.00
2022-10-05T04:13:03.721Z,0.00
2022-10-05T04:14:03.706Z,0.00
2022-10-05T04:15:03.694Z,0.00
2022-10-05T04:16:03.751Z,0.00
2022-10-05T04:17:03.656Z,0.00
2022-10-05T04:18:03.645Z,0.00
2022-10-05T04:19:03.633Z,0.00
2022-10-05T04:20:03.620Z,0.00
2022-10-05T04:21:03.609Z,0.00
2022-10-05T04:22:03.596Z,0.00
2022-10-05T04:23:03.587Z,0.00
2022-10-05T04:24:03.577Z,0.00
2022-10-05T04:25:03.571Z,0.00
2022-10-05T04:26:03.559Z,0.00
2022-10-05T04:27:03.545Z,0.00
2022-10-05T04:28:03.581Z,0.00
2022-10-05T04:29:03.548Z,0.00
2022-10-05T04:30:03.514Z,0.00
2022-10-05T04:31:03.557Z,0.00
2022-10-05T04:32:03.489Z,0.00
2022-10-05T04:33:03.480Z,0.00
2022-10-05T04:34:03.470Z,0.00
2022-10-05T04:35:03.460Z,0.00
2022-10-05T04:36:03.445Z,0.00
2022-10-05T04:37:03.439Z,0.00
2022-10-05T04:38:03.425Z,0.00
2022-10-05T04:39:03.415Z,0.00
2022-10-05T04:40:03.409Z,0.00
2022-10-05T04:41:03.395Z,0.00
2022-10-05T04:42:03.383Z,0.00
2022-10-05T04:43:03.374Z,0.00
2022-10-05T04:44:03.363Z,0.00
2022-10-05T04:45:03.378Z,0.00
2022-10-05T04:46:03.340Z,0.00
2022-10-05T04:47:03.408Z,0.00
2022-10-05T04:48:03.319Z,0.00
2022-10-05T04:49:03.320Z,0.00
2022-10-05T04:50:03.296Z,0.00
2022-10-05T04:51:03.290Z,0.00
2022-10-05T04:52:03.275Z,0.00
2022-10-05T04:53:03.267Z,0.00
2022-10-05T04:54:03.255Z,0.00
2022-10-05T04:55:03.251Z,0.00
2022-10-05T04:56:03.250Z,0.00
2022-10-05T04:57:03.237Z,0.00
2022-10-05T04:58:03.218Z,0.00
2022-10-05T04:59:03.224Z,0.00
2022-10-05T05:00:03.201Z,0.00
2022-10-05T05:01:03.255Z,4.00
2022-10-05T05:02:03.172Z,4.00
2022-10-05T05:03:03.159Z,0.00
2022-10-05T05:04:03.230Z,4.00
2022-10-05T05:05:03.136Z,4.00
2022-10-05T05:06:16.838Z,8.00
2022-10-05T05:07:04.143Z,4.00
2022-10-05T05:08:03.100Z,8.00
2022-10-05T05:09:03.092Z,8.00
2022-10-05T05:10:03.082Z,8.00
2022-10-05T05:11:03.069Z,12.00
2022-10-05T05:12:03.057Z,12.00
2022-10-05T05:13:03.044Z,16.00
2022-10-05T05:14:03.037Z,20.00
2022-10-05T05:15:03.026Z,24.00
2022-10-05T05:16:03.067Z,28.00
2022-10-05T05:17:03.025Z,32.00
2022-10-05T05:18:02.992Z,40.00
2022-10-05T05:19:02.983Z,44.00
2022-10-05T05:20:02.969Z,52.00
2022-10-05T05:21:02.961Z,56.00
2022-10-05T05:22:02.949Z,68.00
2022-10-05T05:23:02.939Z,72.00
2022-10-05T05:24:02.944Z,84.00
2022-10-05T05:25:02.919Z,92.00
2022-10-05T05:26:02.918Z,104.00
2022-10-05T05:27:02.894Z,120.00
2022-10-05T05:28:03.020Z,128.00
2022-10-05T05:29:02.877Z,136.00
2022-10-05T05:30:02.866Z,148.00
2022-10-05T05:31:02.895Z,160.00
2022-10-05T05:32:02.843Z,172.00
2022-10-05T05:33:02.853Z,184.00
2022-10-05T05:34:02.819Z,204.00
2022-10-05T05:35:02.813Z,216.00
2022-10-05T05:36:02.798Z,228.00
2022-10-05T05:37:02.789Z,260.00
2022-10-05T05:38:02.783Z,296.00
2022-10-05T05:39:02.772Z,320.00
2022-10-05T05:40:02.756Z,332.00
2022-10-05T05:41:02.747Z,372.00
2022-10-05T05:42:02.739Z,444.00
2022-10-05T05:43:02.732Z,504.00
2022-10-05T05:44:02.715Z,560.00
2022-10-05T05:45:02.713Z,604.00
2022-10-05T05:46:02.696Z,652.00
2022-10-05T05:47:04.554Z,700.00
2022-10-05T05:48:02.673Z,748.00
2022-10-05T05:49:02.685Z,820.00
2022-10-05T05:50:07.064Z,900.00
2022-10-05T05:51:02.642Z,964.00
2022-10-05T05:52:02.629Z,1036.00
2022-10-05T05:53:02.621Z,1108.00
2022-10-05T05:54:02.606Z,1176.00
2022-10-05T05:55:02.599Z,1248.00
2022-10-05T05:56:02.594Z,1308.00
2022-10-05T05:57:02.576Z,1368.00
2022-10-05T05:58:02.570Z,1424.00
2022-10-05T05:59:02.556Z,1476.00
2022-10-05T06:00:02.541Z,1508.00
2022-10-05T06:01:02.558Z,1496.00
2022-10-05T06:02:02.596Z,1432.00
2022-10-05T06:03:02.696Z,1352.00
2022-10-05T06:04:02.499Z,1324.00
2022-10-05T06:05:02.525Z,1336.00
2022-10-05T06:06:02.481Z,1372.00
2022-10-05T06:07:02.470Z,1472.00
2022-10-05T06:08:02.457Z,1648.00
2022-10-05T06:09:02.450Z,1800.00
2022-10-05T06:10:02.435Z,1892.00
2022-10-05T06:11:02.425Z,2012.00
2022-10-05T06:12:02.413Z,2072.00
2022-10-05T06:13:02.403Z,2108.00
2022-10-05T06:14:02.597Z,2136.00
2022-10-05T06:15:02.380Z,2072.00
2022-10-05T06:16:02.426Z,2032.00
2022-10-05T06:17:02.357Z,2100.00
2022-10-05T06:18:02.346Z,2128.00
2022-10-05T06:19:02.338Z,2096.00
2022-10-05T06:20:05.341Z,2200.00
2022-10-05T06:21:02.336Z,2288.00
2022-10-05T06:22:02.300Z,2440.00
2022-10-05T06:23:02.299Z,2736.00
2022-10-05T06:24:02.286Z,2880.00
2022-10-05T06:25:02.268Z,3160.00
2022-10-05T06:26:02.957Z,3356.00
2022-10-05T06:27:02.254Z,3456.00
2022-10-05T06:28:02.290Z,3576.00
2022-10-05T06:29:02.227Z,3692.00
2022-10-05T06:30:02.213Z,3732.00
2022-10-05T06:31:02.201Z,3792.00
2022-10-05T06:32:02.257Z,3852.00
2022-10-05T06:33:02.364Z,3812.00
2022-10-05T06:34:02.170Z,3788.00
2022-10-05T06:35:02.158Z,3832.00
2022-10-05T06:36:02.158Z,3836.00
2022-10-05T06:37:02.158Z,3784.00
2022-10-05T06:38:02.123Z,3800.00
2022-10-05T06:39:02.113Z,3948.00
2022-10-05T06:40:02.104Z,4204.00
2022-10-05T06:41:02.091Z,4424.00
2022-10-05T06:42:02.092Z,4556.00
2022-10-05T06:43:02.069Z,4616.00
2022-10-05T06:44:02.060Z,4672.00
2022-10-05T06:45:02.050Z,4604.00
2022-10-05T06:46:02.134Z,4500.00
2022-10-05T06:47:02.025Z,4344.00
2022-10-05T06:48:05.308Z,4308.00
2022-10-05T06:49:02.006Z,4316.00
2022-10-05T06:50:01.993Z,4208.00
2022-10-05T06:51:01.983Z,4288.00
2022-10-05T06:52:01.972Z,4608.00
2022-10-05T06:53:02.073Z,4840.00
2022-10-05T06:54:01.949Z,4776.00
2022-10-05T06:55:01.939Z,4316.00
2022-10-05T06:56:01.934Z,3908.00
2022-10-05T06:57:01.918Z,3684.00
2022-10-05T06:58:02.023Z,3476.00
2022-10-05T06:59:01.892Z,2888.00
2022-10-05T07:00:01.936Z,2968.00
2022-10-05T07:01:02.060Z,3112.00
2022-10-05T07:02:01.921Z,2844.00
2022-10-05T07:03:01.849Z,2516.00
2022-10-05T07:04:01.844Z,2620.00
2022-10-05T07:05:01.830Z,2620.00
2022-10-05T07:06:01.821Z,2384.00
2022-10-05T07:07:01.809Z,2440.00
2022-10-05T07:08:01.797Z,2476.00
2022-10-05T07:09:01.811Z,2528.00
2022-10-05T07:10:01.785Z,2844.00
2022-10-05T07:11:01.764Z,3180.00
2022-10-05T07:12:05.236Z,3536.00
2022-10-05T07:13:01.941Z,3860.00
2022-10-05T07:14:01.739Z,3852.00
2022-10-05T07:15:01.721Z,3712.00
2022-10-05T07:16:01.800Z,3728.00
2022-10-05T07:17:01.698Z,3868.00
2022-10-05T07:18:01.778Z,3956.00
2022-10-05T07:19:01.676Z,4032.00
2022-10-05T07:20:01.665Z,4004.00
2022-10-05T07:21:01.657Z,4092.00
2022-10-05T07:22:01.656Z,4588.00
2022-10-05T07:23:01.695Z,5340.00
2022-10-05T07:24:01.636Z,6356.00
2022-10-05T07:25:01.652Z,6684.00
2022-10-05T07:26:01.601Z,6480.00
2022-10-05T07:27:01.593Z,6136.00
2022-10-05T07:28:01.793Z,5836.00
2022-10-05T07:29:01.563Z,5496.00
2022-10-05T07:30:01.587Z,5580.00
2022-10-05T07:31:01.591Z,5240.00
2022-10-05T07:32:01.542Z,4284.00
2022-10-05T07:33:01.631Z,3328.00
2022-10-05T07:34:01.513Z,3044.00
2022-10-05T07:35:01.521Z,3136.00
2022-10-05T07:36:01.492Z,3300.00
2022-10-05T07:37:01.492Z,3580.00
2022-10-05T07:38:01.518Z,3772.00
2022-10-05T07:39:01.457Z,3736.00
2022-10-05T07:40:01.766Z,3560.00
2022-10-05T07:41:01.466Z,3348.00
2022-10-05T07:42:01.426Z,3196.00
2022-10-05T07:43:01.471Z,3416.00
2022-10-05T07:44:03.074Z,4476.00
2022-10-05T07:45:01.393Z,5112.00
2022-10-05T07:46:01.469Z,5428.00
2022-10-05T07:47:01.367Z,7564.00
2022-10-05T07:48:01.369Z,9436.00
2022-10-05T07:49:01.347Z,10156.00
2022-10-05T07:50:01.338Z,10348.00
2022-10-05T07:51:01.326Z,10516.00
2022-10-05T07:52:01.317Z,9984.00
2022-10-05T07:53:01.452Z,9720.00
2022-10-05T07:54:01.298Z,10272.00
2022-10-05T07:55:01.281Z,10336.00
2022-10-05T07:56:01.271Z,9804.00
2022-10-05T07:57:01.286Z,10232.00
2022-10-05T07:58:01.261Z,10024.00
2022-10-05T07:59:01.385Z,10152.00
2022-10-05T08:00:01.225Z,10336.00
2022-10-05T08:01:01.216Z,10628.00
2022-10-05T08:02:01.345Z,10292.00
2022-10-05T08:03:01.312Z,11008.00
2022-10-05T08:04:01.182Z,11436.00
2022-10-05T08:05:01.167Z,10996.00
2022-10-05T08:06:01.159Z,10696.00
2022-10-05T08:07:01.156Z,9896.00
2022-10-05T08:08:01.139Z,10328.00
2022-10-05T08:09:01.127Z,11356.00
2022-10-05T08:10:01.121Z,11792.00
2022-10-05T08:11:01.109Z,11976.00
2022-10-05T08:12:01.100Z,12364.00
2022-10-05T08:13:01.107Z,13148.00
2022-10-05T08:14:01.079Z,13328.00
2022-10-05T08:15:01.063Z,13032.00
2022-10-05T08:16:01.131Z,11424.00
2022-10-05T08:17:01.046Z,10164.00
2022-10-05T08:18:01.032Z,9568.00
2022-10-05T08:19:01.021Z,9272.00
2022-10-05T08:20:01.011Z,9304.00
2022-10-05T08:21:00.997Z,9620.00
2022-10-05T08:22:00.987Z,8764.00
2022-10-05T08:23:00.984Z,8212.00
2022-10-05T08:24:00.978Z,8124.00
2022-10-05T08:25:00.958Z,8044.00
2022-10-05T08:26:00.943Z,7652.00
2022-10-05T08:27:00.963Z,8192.00
2022-10-05T08:28:00.964Z,9084.00
2022-10-05T08:29:00.937Z,10264.00
2022-10-05T08:30:00.902Z,10472.00
2022-10-05T08:31:00.956Z,10432.00
2022-10-05T08:32:00.885Z,10560.00
2022-10-05T08:33:00.905Z,11412.00
2022-10-05T08:34:00.930Z,12356.00
2022-10-05T08:35:01.038Z,12564.00
2022-10-05T08:36:00.973Z,12904.00
2022-10-05T08:37:00.866Z,13048.00
2022-10-05T08:38:00.974Z,11892.00
2022-10-05T08:39:00.840Z,11396.00
2022-10-05T08:40:00.800Z,11112.00
2022-10-05T08:41:00.783Z,10128.00
2022-10-05T08:42:00.773Z,10964.00
2022-10-05T08:43:00.762Z,10196.00
2022-10-05T08:44:00.751Z,9908.00
2022-10-05T08:45:00.761Z,10268.00
2022-10-05T08:46:00.795Z,11148.00
2022-10-05T08:47:00.715Z,11536.00
2022-10-05T08:48:00.707Z,12188.00
2022-10-05T08:49:00.692Z,12448.00
2022-10-05T08:50:00.686Z,12060.00
2022-10-05T08:51:00.670Z,11936.00
2022-10-05T08:52:00.667Z,12828.00
2022-10-05T08:53:00.647Z,13344.00
2022-10-05T08:54:00.653Z,13176.00
2022-10-05T08:55:00.627Z,13824.00
2022-10-05T08:56:00.615Z,14424.00
2022-10-05T08:57:00.603Z,15104.00
2022-10-05T08:58:00.590Z,15688.00
2022-10-05T08:59:00.577Z,15284.00
2022-10-05T09:00:00.566Z,15240.00
2022-10-05T09:01:00.662Z,15096.00
2022-10-05T09:02:00.552Z,15312.00
2022-10-05T09:03:00.683Z,15664.00
2022-10-05T09:04:00.529Z,14904.00
2022-10-05T09:05:00.525Z,14048.00
2022-10-05T09:06:00.505Z,12708.00
2022-10-05T09:07:00.498Z,12452.00
2022-10-05T09:08:00.482Z,13636.00
2022-10-05T09:09:00.468Z,15348.00
2022-10-05T09:10:01.929Z,16496.00
2022-10-05T09:11:00.454Z,16928.00
2022-10-05T09:12:00.438Z,17024.00
2022-10-05T09:13:00.424Z,16436.00
2022-10-05T09:14:00.429Z,15968.00
2022-10-05T09:15:24.228Z,15868.00
2022-10-05T09:16:01.593Z,15980.00
2022-10-05T09:17:00.437Z,15680.00
2022-10-05T09:18:00.407Z,14036.00
2022-10-05T09:19:00.388Z,14000.00
2022-10-05T09:20:00.382Z,14984.00
2022-10-05T09:21:00.339Z,15564.00
2022-10-05T09:22:00.329Z,15332.00
2022-10-05T09:23:00.327Z,15288.00
2022-10-05T09:24:00.310Z,15324.00
2022-10-05T09:25:00.315Z,15388.00
2022-10-05T09:26:00.294Z,15692.00
2022-10-05T09:27:00.273Z,15436.00
2022-10-05T09:28:00.406Z,15244.00
2022-10-05T09:29:00.267Z,15940.00
2022-10-05T09:30:00.256Z,15832.00
2022-10-05T09:31:00.274Z,16800.00
2022-10-05T09:32:00.234Z,16328.00
2022-10-05T09:33:00.239Z,16008.00
2022-10-05T09:34:00.200Z,15508.00
2022-10-05T09:35:00.244Z,14768.00
2022-10-05T09:36:00.183Z,14436.00
2022-10-05T09:37:00.170Z,14800.00
2022-10-05T09:38:00.184Z,13724.00
2022-10-05T09:39:00.150Z,13500.00
2022-10-05T09:40:01.486Z,13764.00
2022-10-05T09:41:00.172Z,13608.00
2022-10-05T09:42:00.109Z,14856.00
2022-10-05T09:43:00.102Z,13976.00
2022-10-05T09:44:00.093Z,14008.00
2022-10-05T09:45:00.088Z,13696.00
2022-10-05T09:46:00.097Z,12996.00
2022-10-05T09:47:00.162Z,12288.00
2022-10-05T09:48:00.048Z,12808.00
2022-10-05T09:49:00.156Z,14516.00
2022-10-05T09:50:00.030Z,16348.00
2022-10-05T09:51:00.012Z,16640.00
2022-10-05T09:52:00.003Z,16992.00
2022-10-05T09:52:59.988Z,17248.00
2022-10-05T09:53:59.978Z,17472.00
2022-10-05T09:54:59.969Z,17440.00
2022-10-05T09:55:59.956Z,18080.00
2022-10-05T09:56:59.950Z,17312.00
2022-10-05T09:57:59.936Z,17216.00
2022-10-05T09:58:59.935Z,17376.00
2022-10-05T09:59:59.957Z,17344.00
2022-10-05T10:01:09.100Z,16928.00
2022-10-05T10:01:59.930Z,16704.00
2022-10-05T10:03:00.150Z,18688.00
2022-10-05T10:03:59.870Z,19840.00
2022-10-05T10:04:59.879Z,18976.00
2022-10-05T10:05:59.848Z,18144.00
2022-10-05T10:06:59.834Z,18560.00
2022-10-05T10:07:59.825Z,17504.00
2022-10-05T10:08:59.813Z,18624.00
2022-10-05T10:09:59.805Z,18560.00
2022-10-05T10:10:59.792Z,16300.00
2022-10-05T10:11:59.784Z,18208.00
2022-10-05T10:12:59.773Z,18976.00
2022-10-05T10:13:59.761Z,19872.00
2022-10-05T10:15:02.854Z,20192.00
2022-10-05T10:15:59.821Z,17568.00
2022-10-05T10:16:59.738Z,17312.00
2022-10-05T10:17:59.717Z,17632.00
2022-10-05T10:18:59.705Z,16896.00
2022-10-05T10:19:59.698Z,17216.00
2022-10-05T10:20:59.802Z,17376.00
2022-10-05T10:21:59.673Z,19904.00
2022-10-05T10:22:59.662Z,18368.00
2022-10-05T10:23:59.651Z,17472.00
2022-10-05T10:24:59.640Z,17472.00
2022-10-05T10:25:59.630Z,17920.00
2022-10-05T10:26:59.617Z,18432.00
2022-10-05T10:27:59.665Z,19584.00
2022-10-05T10:28:59.596Z,19936.00
2022-10-05T10:29:59.585Z,22432.00
2022-10-05T10:30:59.618Z,26976.00
2022-10-05T10:31:59.568Z,26464.00
2022-10-05T10:32:59.554Z,24640.00
2022-10-05T10:33:59.544Z,26240.00
2022-10-05T10:34:59.530Z,24768.00
2022-10-05T10:36:01.685Z,22720.00
2022-10-05T10:36:59.531Z,22432.00
2022-10-05T10:37:59.499Z,22240.00
2022-10-05T10:38:59.500Z,25088.00
2022-10-05T10:39:59.480Z,24032.00
2022-10-05T10:40:59.480Z,25024.00
2022-10-05T10:41:59.455Z,21184.00
2022-10-05T10:42:59.442Z,22144.00
2022-10-05T10:43:59.432Z,21504.00
2022-10-05T10:44:59.422Z,23648.00
2022-10-05T10:45:59.485Z,22560.00
2022-10-05T10:46:59.545Z,22304.00
2022-10-05T10:47:59.391Z,22080.00
2022-10-05T10:48:59.378Z,21472.00
2022-10-05T10:49:59.369Z,24544.00
2022-10-05T10:50:59.355Z,25216.00
2022-10-05T10:51:59.346Z,21856.00
2022-10-05T10:52:59.460Z,21600.00
2022-10-05T10:53:59.324Z,23872.00
2022-10-05T10:54:59.313Z,24768.00
2022-10-05T10:55:59.303Z,26432.00
2022-10-05T10:56:59.294Z,25984.00
2022-10-05T10:57:59.281Z,24736.00
2022-10-05T10:58:59.272Z,25760.00
2022-10-05T10:59:59.260Z,23360.00
2022-10-05T11:00:59.250Z,23680.00
2022-10-05T11:01:59.324Z,22912.00
2022-10-05T11:02:59.265Z,24928.00
2022-10-05T11:03:59.219Z,26304.00
2022-10-05T11:04:59.204Z,22528.00
2022-10-05T11:05:59.193Z,24864.00
2022-10-05T11:06:59.183Z,23840.00
2022-10-05T11:07:59.170Z,20992.00
2022-10-05T11:08:59.184Z,22944.00
2022-10-05T11:09:59.150Z,22848.00
2022-10-05T11:10:59.138Z,25088.00
2022-10-05T11:11:59.128Z,23424.00
2022-10-05T11:12:59.120Z,25568.00
2022-10-05T11:13:59.104Z,23584.00
2022-10-05T11:14:59.098Z,22112.00
2022-10-05T11:15:59.182Z,25824.00
2022-10-05T11:16:59.075Z,25248.00
2022-10-05T11:17:59.061Z,27328.00
2022-10-05T11:18:59.052Z,27424.00
2022-10-05T11:20:04.115Z,24864.00
2022-10-05T11:20:59.035Z,21376.00
2022-10-05T11:21:59.028Z,19936.00
2022-10-05T11:22:59.010Z,21056.00
2022-10-05T11:23:58.993Z,22272.00
2022-10-05T11:24:59.011Z,22368.00
2022-10-05T11:25:58.972Z,24192.00
2022-10-05T11:26:58.965Z,24832.00
2022-10-05T11:27:59.034Z,24448.00
2022-10-05T11:28:58.946Z,28160.00
2022-10-05T11:29:58.934Z,29824.00
2022-10-05T11:30:58.998Z,29312.00
2022-10-05T11:31:58.913Z,27808.00
2022-10-05T11:32:58.907Z,25792.00
2022-10-05T11:33:58.894Z,26848.00
2022-10-05T11:34:58.879Z,28192.00
2022-10-05T11:35:58.863Z,23552.00
2022-10-05T11:36:58.854Z,22656.00
2022-10-05T11:37:58.852Z,26688.00
2022-10-05T11:38:58.834Z,28160.00
2022-10-05T11:39:58.825Z,25888.00
2022-10-05T11:40:58.835Z,22624.00
2022-10-05T11:41:58.798Z,25216.00
2022-10-05T11:42:58.833Z,25472.00
2022-10-05T11:44:01.081Z,23264.00
2022-10-05T11:44:58.768Z,26816.00
2022-10-05T11:45:58.936Z,27136.00
2022-10-05T11:46:58.748Z,25184.00
2022-10-05T11:47:58.733Z,23200.00
2022-10-05T11:48:58.774Z,24064.00
2022-10-05T11:49:58.775Z,21344.00
2022-10-05T11:50:58.702Z,17296.00
2022-10-05T11:51:58.783Z,20800.00
2022-10-05T11:52:58.740Z,23424.00
2022-10-05T11:53:58.684Z,23552.00
2022-10-05T11:55:10.447Z,19904.00
2022-10-05T11:55:58.665Z,18688.00
2022-10-05T11:56:58.990Z,18688.00
2022-10-05T11:57:58.637Z,21056.00
2022-10-05T11:58:58.619Z,22784.00
2022-10-05T11:59:58.606Z,23392.00
2022-10-05T12:00:58.601Z,22336.00
2022-10-05T12:01:58.583Z,19968.00
2022-10-05T12:02:58.745Z,19744.00
2022-10-05T12:03:58.685Z,21472.00
2022-10-05T12:04:58.669Z,20928.00
2022-10-05T12:05:58.539Z,20544.00
2022-10-05T12:06:58.530Z,20000.00
2022-10-05T12:07:58.518Z,20704.00
2022-10-05T12:08:58.510Z,21216.00
2022-10-05T12:09:58.495Z,23328.00
2022-10-05T12:10:58.486Z,19584.00
2022-10-05T12:11:58.478Z,19712.00
2022-10-05T12:12:58.726Z,16424.00
2022-10-05T12:13:58.451Z,20032.00
2022-10-05T12:14:58.443Z,19328.00
2022-10-05T12:15:58.468Z,21152.00
2022-10-05T12:16:58.422Z,20320.00
2022-10-05T12:17:58.409Z,20640.00
2022-10-05T12:18:58.401Z,18656.00
2022-10-05T12:19:58.509Z,16716.00
2022-10-05T12:20:58.382Z,18784.00
2022-10-05T12:21:58.366Z,20512.00
2022-10-05T12:22:58.895Z,21504.00
2022-10-05T12:23:58.343Z,21472.00
2022-10-05T12:24:58.334Z,19744.00
2022-10-05T12:25:58.322Z,19456.00
2022-10-05T12:26:58.327Z,20128.00
2022-10-05T12:27:58.322Z,16308.00
2022-10-05T12:28:58.319Z,21856.00
2022-10-05T12:29:58.301Z,21088.00
2022-10-05T12:30:58.418Z,20192.00
2022-10-05T12:31:58.259Z,20896.00
2022-10-05T12:33:01.853Z,18592.00
2022-10-05T12:33:58.234Z,18208.00
2022-10-05T12:35:01.629Z,21536.00
2022-10-05T12:35:58.214Z,23904.00
2022-10-05T12:37:05.781Z,18976.00
2022-10-05T12:37:59.224Z,19200.00
2022-10-05T12:38:58.187Z,18240.00
2022-10-05T12:39:58.175Z,18592.00
2022-10-05T12:40:58.160Z,19104.00
2022-10-05T12:41:58.148Z,17696.00
2022-10-05T12:42:58.140Z,17664.00
2022-10-05T12:43:58.129Z,18048.00
2022-10-05T12:44:58.138Z,15820.00
2022-10-05T12:45:58.152Z,15896.00
2022-10-05T12:46:58.102Z,18272.00
2022-10-05T12:47:58.081Z,18656.00
2022-10-05T12:48:58.075Z,16540.00
2022-10-05T12:49:58.060Z,16144.00
2022-10-05T12:50:58.056Z,16452.00
2022-10-05T12:51:58.045Z,14144.00
2022-10-05T12:52:58.027Z,11800.00
2022-10-05T12:53:58.017Z,11408.00
2022-10-05T12:54:58.018Z,11780.00
2022-10-05T12:55:57.997Z,11972.00
2022-10-05T12:56:57.986Z,11628.00
2022-10-05T12:57:57.976Z,12264.00
2022-10-05T12:58:57.966Z,15496.00
2022-10-05T12:59:57.951Z,17144.00
2022-10-05T13:00:58.022Z,18304.00
2022-10-05T13:01:57.977Z,16240.00
2022-10-05T13:02:57.923Z,15664.00
2022-10-05T13:03:57.911Z,17312.00
2022-10-05T13:04:57.907Z,17408.00
2022-10-05T13:06:02.359Z,16192.00
2022-10-05T13:06:57.883Z,15976.00
2022-10-05T13:07:57.864Z,17536.00
2022-10-05T13:08:57.855Z,18912.00
2022-10-05T13:09:57.846Z,17664.00
2022-10-05T13:11:01.716Z,16000.00
2022-10-05T13:11:57.821Z,18016.00
2022-10-05T13:12:57.812Z,20832.00
2022-10-05T13:13:57.812Z,20704.00
2022-10-05T13:14:57.792Z,19200.00
2022-10-05T13:15:57.843Z,20000.00
2022-10-05T13:16:58.264Z,18080.00
2022-10-05T13:17:57.759Z,16228.00
2022-10-05T13:18:57.749Z,17920.00
2022-10-05T13:19:57.740Z,18880.00
2022-10-05T13:20:57.726Z,19712.00
2022-10-05T13:21:57.713Z,18848.00
2022-10-05T13:22:57.706Z,16832.00
2022-10-05T13:23:57.860Z,14728.00